createdAt,value
2017-11-17T00:02:14.302Z,5.80
2017-11-17T00:04:44.826Z,6.50
2017-11-17T00:07:16.381Z,6.43
2017-11-17T00:09:46.835Z,6.70
2017-11-17T00:12:17.325Z,8.27
2017-11-17T00:14:48.628Z,8.90
2017-11-17T00:17:19.119Z,8.60
2017-11-17T00:19:50.002Z,6.90
2017-11-17T00:22:20.538Z,8.50
2017-11-17T00:24:51.130Z,8.20
2017-11-17T00:27:21.656Z,8.07
2017-11-17T00:29:52.251Z,7.70
2017-11-17T00:32:23.919Z,5.80
2017-11-17T00:34:55.254Z,7.00
2017-11-17T00:37:26.999Z,7.50
2017-11-17T00:39:57.442Z,8.17
2017-11-17T00:42:28.805Z,7.10
2017-11-17T00:44:59.326Z,7.30
2017-11-17T00:47:30.640Z,8.10
2017-11-17T00:50:01.509Z,8.53
2017-11-17T00:52:32.782Z,8.87
2017-11-17T00:55:03.385Z,8.20
2017-11-17T00:57:34.768Z,7.73
2017-11-17T01:00:05.307Z,6.40
2017-11-17T01:02:37.142Z,7.83
2017-11-17T01:05:07.584Z,7.87
2017-11-17T01:07:38.464Z,7.43
2017-11-17T01:10:08.915Z,5.73
2017-11-17T01:12:40.252Z,6.33
2017-11-17T01:15:11.504Z,5.87
2017-11-17T01:17:42.780Z,4.67
2017-11-17T01:20:13.612Z,5.83
2017-11-17T01:22:44.176Z,6.23
2017-11-17T01:25:14.659Z,6.87
2017-11-17T01:27:45.135Z,6.47
2017-11-17T01:30:15.649Z,6.57
2017-11-17T01:32:46.615Z,7.03
2017-11-17T01:35:17.170Z,5.57
2017-11-17T01:37:48.830Z,5.10
2017-11-17T01:40:20.060Z,4.63
2017-11-17T01:42:50.621Z,4.40
2017-11-17T01:45:21.126Z,4.83
2017-11-17T01:47:52.395Z,4.53
2017-11-17T01:50:23.145Z,4.20
2017-11-17T01:52:53.654Z,3.80
2017-11-17T01:55:24.143Z,3.73
2017-11-17T01:57:54.737Z,4.17
2017-11-17T02:00:25.253Z,4.10
2017-11-17T02:02:55.682Z,4.07
2017-11-17T02:05:26.190Z,3.93
2017-11-17T02:07:57.146Z,4.40
2017-11-17T02:10:27.688Z,3.60
2017-11-17T02:12:58.176Z,4.63
2017-11-17T02:15:29.451Z,3.63
2017-11-17T02:17:59.971Z,4.03
2017-11-17T02:20:30.585Z,3.63
2017-11-17T02:23:01.788Z,3.37
2017-11-17T02:25:32.543Z,3.30
2017-11-17T02:28:02.996Z,3.60
2017-11-17T02:30:34.273Z,3.70
2017-11-17T02:33:04.899Z,3.77
2017-11-17T02:35:35.493Z,4.03
2017-11-17T02:38:07.271Z,4.83
2017-11-17T02:40:37.803Z,4.60
2017-11-17T02:43:08.345Z,3.80
2017-11-17T02:45:38.847Z,4.57
2017-11-17T02:48:10.232Z,3.77
2017-11-17T02:50:40.715Z,3.87
2017-11-17T02:53:12.027Z,4.00
2017-11-17T02:55:42.883Z,3.40
2017-11-17T02:58:13.428Z,2.60
2017-11-17T03:00:45.054Z,2.87
2017-11-17T03:03:15.610Z,2.70
2017-11-17T03:05:46.863Z,2.20
2017-11-17T03:08:18.285Z,2.27
2017-11-17T03:10:48.839Z,2.20
2017-11-17T03:13:20.159Z,2.13
2017-11-17T03:15:50.659Z,1.97
2017-11-17T03:18:21.182Z,1.63
2017-11-17T03:20:52.146Z,1.90
2017-11-17T03:23:22.639Z,2.13
2017-11-17T03:25:53.614Z,1.70
2017-11-17T03:28:24.203Z,1.60
2017-11-17T03:30:54.852Z,1.73
2017-11-17T03:33:25.346Z,1.20
2017-11-17T03:35:56.617Z,1.47
2017-11-17T03:38:27.260Z,1.17
2017-11-17T03:40:57.772Z,1.60
2017-11-17T03:43:28.302Z,1.70
2017-11-17T03:45:58.842Z,2.40
2017-11-17T03:48:29.276Z,2.43
2017-11-17T03:51:00.190Z,2.03
2017-11-17T03:53:30.796Z,1.60
2017-11-17T03:56:02.555Z,1.87
2017-11-17T03:58:33.869Z,2.33
2017-11-17T04:01:04.371Z,2.40
2017-11-17T04:03:34.890Z,1.47
2017-11-17T04:06:05.332Z,2.60
2017-11-17T04:08:35.924Z,2.60
2017-11-17T04:11:07.382Z,3.10
2017-11-17T04:13:38.734Z,2.20
2017-11-17T04:16:09.272Z,3.10
2017-11-17T04:18:39.756Z,2.90
2017-11-17T04:21:10.598Z,3.53
2017-11-17T04:23:41.182Z,3.57
2017-11-17T04:26:11.735Z,3.53
2017-11-17T04:28:42.228Z,3.27
2017-11-17T04:31:12.752Z,4.10
2017-11-17T04:33:43.375Z,4.57
2017-11-17T04:36:13.892Z,5.27
2017-11-17T04:38:45.650Z,4.50
2017-11-17T04:41:16.918Z,4.47
2017-11-17T04:43:47.542Z,4.90
2017-11-17T04:46:17.979Z,4.43
2017-11-17T04:48:48.483Z,4.17
2017-11-17T04:51:19.629Z,4.37
2017-11-17T04:53:50.920Z,3.47
2017-11-17T04:56:21.897Z,3.23
2017-11-17T04:58:53.195Z,2.60
2017-11-17T05:01:23.746Z,3.37
2017-11-17T05:03:55.133Z,3.07
2017-11-17T05:06:26.382Z,3.13
2017-11-17T05:08:58.088Z,2.90
2017-11-17T05:11:28.558Z,2.83
2017-11-17T05:14:00.249Z,3.00
2017-11-17T05:16:30.779Z,2.53
2017-11-17T05:19:01.307Z,3.27
2017-11-17T05:21:31.758Z,2.80
2017-11-17T05:24:02.180Z,2.90
2017-11-17T05:26:33.166Z,3.70
2017-11-17T05:29:04.360Z,7.30
2017-11-17T05:31:34.835Z,9.57
2017-11-17T05:34:06.064Z,10.03
2017-11-17T05:36:36.504Z,8.10
2017-11-17T05:39:07.490Z,7.23
2017-11-17T05:41:37.983Z,7.50
2017-11-17T05:44:09.565Z,6.67
2017-11-17T05:46:40.144Z,7.03
2017-11-17T05:49:10.695Z,7.20
2017-11-17T05:51:41.938Z,5.90
2017-11-17T05:54:13.214Z,5.70
2017-11-17T05:56:44.176Z,5.97
2017-11-17T05:59:14.869Z,5.43
2017-11-17T06:01:45.360Z,5.33
2017-11-17T06:04:15.886Z,6.20
2017-11-17T06:06:46.408Z,6.37
2017-11-17T06:09:17.297Z,5.20
2017-11-17T06:11:48.540Z,6.40
2017-11-17T06:14:19.323Z,6.20
2017-11-17T06:16:49.794Z,6.63
2017-11-17T06:19:21.074Z,9.17
2017-11-17T06:21:51.506Z,10.30
2017-11-17T06:27:07.027Z,10.30
2017-11-17T06:29:39.206Z,10.07
2017-11-17T06:32:09.762Z,8.37
2017-11-17T06:34:41.069Z,9.27
2017-11-17T06:37:11.594Z,9.60
2017-11-17T06:39:42.573Z,9.70
2017-11-17T06:42:13.875Z,10.20
2017-11-17T06:44:44.452Z,10.87
2017-11-17T06:47:15.738Z,11.27
2017-11-17T06:49:46.383Z,9.90
2017-11-17T06:52:16.976Z,11.17
2017-11-17T06:54:47.690Z,9.77
2017-11-17T06:57:19.327Z,10.40
2017-11-17T06:59:49.840Z,12.23
2017-11-17T07:02:20.330Z,9.50
2017-11-17T07:04:50.875Z,7.87
2017-11-17T07:07:21.401Z,6.07
2017-11-17T07:09:52.218Z,4.53
2017-11-17T07:12:22.745Z,2.97
2017-11-17T07:14:53.559Z,3.00
2017-11-17T07:17:24.818Z,3.30
2017-11-17T07:19:56.053Z,3.43
2017-11-17T07:22:27.279Z,3.10
2017-11-17T07:24:57.772Z,3.43
2017-11-17T07:27:28.652Z,2.90
2017-11-17T07:29:59.168Z,3.70
2017-11-17T07:32:29.711Z,3.00
2017-11-17T07:35:00.287Z,3.00
2017-11-17T07:37:30.768Z,2.13
2017-11-17T07:40:01.681Z,2.37
2017-11-17T07:42:32.223Z,2.53
2017-11-17T07:45:02.877Z,2.40
2017-11-17T07:47:34.110Z,2.53
2017-11-17T07:50:04.699Z,2.40
2017-11-17T07:52:35.207Z,2.60
2017-11-17T07:55:05.754Z,2.20
2017-11-17T07:57:36.629Z,2.20
2017-11-17T08:00:07.218Z,2.50
2017-11-17T08:02:37.706Z,1.93
2017-11-17T08:05:08.911Z,1.77
2017-11-17T08:07:39.483Z,2.03
2017-11-17T08:10:11.244Z,1.97
2017-11-17T08:12:42.522Z,1.80
2017-11-17T08:15:13.370Z,2.50
2017-11-17T08:17:54.362Z,1.63
2017-11-17T08:20:24.866Z,2.10
2017-11-17T08:22:55.258Z,2.03
2017-11-17T08:25:26.516Z,2.13
2017-11-17T08:27:57.543Z,2.00
2017-11-17T08:30:28.852Z,2.53
2017-11-17T08:32:59.280Z,2.47
2017-11-17T08:35:29.764Z,2.77
2017-11-17T08:38:00.358Z,2.70
2017-11-17T08:40:31.214Z,3.90
2017-11-17T08:43:02.580Z,3.10
2017-11-17T08:45:33.374Z,2.60
2017-11-17T08:48:03.964Z,3.00
2017-11-17T08:50:34.468Z,3.60
2017-11-17T08:53:04.968Z,3.70
2017-11-17T08:55:35.493Z,3.20
2017-11-17T08:58:06.403Z,2.47
2017-11-17T09:00:36.933Z,2.53
2017-11-17T09:03:07.434Z,3.00
2017-11-17T09:05:37.953Z,3.50
2017-11-17T09:08:08.468Z,3.03
2017-11-17T09:10:40.213Z,2.83
2017-11-17T09:13:11.453Z,3.07
2017-11-17T09:15:42.987Z,5.10
2017-11-17T09:18:13.420Z,4.00
2017-11-17T09:20:43.901Z,5.30
2017-11-17T09:23:14.458Z,4.70
2017-11-17T09:25:44.885Z,4.10
2017-11-17T09:28:15.890Z,5.30
2017-11-17T09:30:46.450Z,7.50
2017-11-17T09:33:16.976Z,6.60
2017-11-17T09:35:47.476Z,4.20
2017-11-17T09:38:18.011Z,4.87
2017-11-17T09:40:48.682Z,4.70
2017-11-17T09:43:19.215Z,4.23
2017-11-17T09:45:50.053Z,3.20
2017-11-17T09:48:20.614Z,4.00
2017-11-17T09:50:51.900Z,3.67
2017-11-17T09:53:22.383Z,3.60
2017-11-17T09:55:53.711Z,3.40
2017-11-17T09:58:24.695Z,3.13
2017-11-17T10:00:55.217Z,4.30
2017-11-17T10:03:25.998Z,4.03
2017-11-17T10:05:56.568Z,4.33
2017-11-17T10:08:27.934Z,4.80
2017-11-17T10:10:58.478Z,3.77
2017-11-17T10:13:29.465Z,3.80
2017-11-17T10:16:00.890Z,3.30
2017-11-17T10:18:31.737Z,3.17
2017-11-17T10:21:02.333Z,3.90
2017-11-17T10:23:32.801Z,3.40
2017-11-17T10:26:03.359Z,4.30
2017-11-17T10:28:35.022Z,3.80
2017-11-17T10:31:06.395Z,3.67
2017-11-17T10:33:37.266Z,3.83
2017-11-17T10:36:07.768Z,3.30
2017-11-17T10:38:38.282Z,4.30
2017-11-17T10:41:08.831Z,4.33
2017-11-17T10:43:39.359Z,4.57
2017-11-17T10:46:10.233Z,3.90
2017-11-17T10:48:40.797Z,5.93
2017-11-17T10:51:11.375Z,4.60
2017-11-17T10:53:41.834Z,4.77
2017-11-17T10:56:18.202Z,4.43
2017-11-17T10:58:49.700Z,4.23
2017-11-17T11:01:20.147Z,4.40
2017-11-17T11:03:51.120Z,4.43
2017-11-17T11:06:22.417Z,5.00
2017-11-17T11:08:52.883Z,4.10
2017-11-17T11:11:28.316Z,4.73
2017-11-17T11:13:58.848Z,4.77
2017-11-17T11:16:29.602Z,5.20
2017-11-17T11:19:00.934Z,4.77
2017-11-17T11:21:31.410Z,5.53
2017-11-17T11:24:01.864Z,5.23
2017-11-17T11:26:32.456Z,5.40
2017-11-17T11:29:02.983Z,5.20
2017-11-17T11:31:33.567Z,6.40
2017-11-17T11:34:04.606Z,7.00
2017-11-17T11:36:35.152Z,8.30
2017-11-17T11:39:05.904Z,8.80
2017-11-17T11:41:37.080Z,9.00
2017-11-17T11:44:07.496Z,9.57
2017-11-17T11:46:38.319Z,9.70
2017-11-17T11:49:08.911Z,9.53
2017-11-17T11:51:39.363Z,8.60
2017-11-17T11:54:10.676Z,9.33
2017-11-17T11:56:41.183Z,9.80
2017-11-17T11:59:12.167Z,9.40
2017-11-17T12:01:42.684Z,8.40
2017-11-17T12:04:13.622Z,8.50
2017-11-17T12:06:44.188Z,7.30
2017-11-17T12:09:15.525Z,6.47
2017-11-17T12:11:46.765Z,7.77
2017-11-17T12:14:18.044Z,6.57
2017-11-17T12:16:48.744Z,5.80
2017-11-17T12:19:20.060Z,7.27
2017-11-17T12:21:50.547Z,6.67
2017-11-17T12:24:21.130Z,7.37
2017-11-17T12:26:51.547Z,7.30
2017-11-17T12:29:22.151Z,6.97
2017-11-17T12:31:52.683Z,6.67
2017-11-17T12:34:23.409Z,8.00
2017-11-17T12:36:53.978Z,7.63
2017-11-17T12:39:24.415Z,7.30
2017-11-17T12:41:55.026Z,7.37
2017-11-17T12:44:25.497Z,6.70
2017-11-17T12:46:56.930Z,7.87
2017-11-17T12:49:28.195Z,7.87
2017-11-17T12:51:59.425Z,7.30
2017-11-17T12:54:30.735Z,7.23
2017-11-17T12:57:01.254Z,6.83
2017-11-17T12:59:32.156Z,6.60
2017-11-17T13:02:02.704Z,6.73
2017-11-17T13:04:33.493Z,6.50
2017-11-17T13:07:04.239Z,8.07
2017-11-17T13:09:35.452Z,8.00
2017-11-17T13:12:06.013Z,6.70
2017-11-17T13:14:36.518Z,8.40
2017-11-17T13:17:07.361Z,7.70
2017-11-17T13:19:37.792Z,7.87
2017-11-17T13:22:08.456Z,7.87
2017-11-17T13:24:38.933Z,6.60
2017-11-17T13:27:09.443Z,7.50
2017-11-17T13:29:39.941Z,6.73
2017-11-17T13:32:10.498Z,7.70
2017-11-17T13:34:41.380Z,6.90
2017-11-17T13:37:11.922Z,15.40
2017-11-17T13:39:43.239Z,24.97
2017-11-17T13:42:13.748Z,12.80
2017-11-17T13:44:44.190Z,10.30
2017-11-17T13:47:14.860Z,10.20
2017-11-17T13:49:46.143Z,9.30
2017-11-17T13:52:17.159Z,9.00
2017-11-17T13:54:47.667Z,9.30
2017-11-17T13:57:18.996Z,32.10
2017-11-17T13:59:49.498Z,22.80
2017-11-17T14:02:19.971Z,12.30
2017-11-17T14:04:51.734Z,9.30
2017-11-17T14:07:23.011Z,10.87
2017-11-17T14:09:53.549Z,9.50
2017-11-17T14:12:24.864Z,8.07
2017-11-17T14:14:56.170Z,8.07
2017-11-17T14:17:26.974Z,7.57
2017-11-17T14:19:57.447Z,7.90
2017-11-17T14:22:28.511Z,13.90
2017-11-17T14:24:59.722Z,12.37
2017-11-17T14:27:30.272Z,10.40
2017-11-17T14:30:01.554Z,11.43
2017-11-17T14:32:32.099Z,13.57
2017-11-17T14:35:02.718Z,14.13
2017-11-17T14:37:33.283Z,21.80
2017-11-17T14:40:04.067Z,19.30
2017-11-17T14:42:34.609Z,17.40
2017-11-17T14:45:05.217Z,18.07
2017-11-17T14:47:36.992Z,20.17
2017-11-17T14:50:07.508Z,20.90
2017-11-17T14:52:39.258Z,30.60
2017-11-17T14:55:10.530Z,26.93
2017-11-17T14:57:42.061Z,25.70
2017-11-17T15:00:13.447Z,26.80
2017-11-17T15:02:44.046Z,24.30
2017-11-17T15:05:15.779Z,21.47
2017-11-17T15:07:46.174Z,21.80
2017-11-17T15:10:16.718Z,19.97
2017-11-17T15:12:47.222Z,19.10
2017-11-17T15:15:17.758Z,18.47
2017-11-17T15:17:48.721Z,17.43
2017-11-17T15:20:24.413Z,17.97
2017-11-17T15:22:55.234Z,18.77
2017-11-17T15:25:26.506Z,18.37
2017-11-17T15:27:57.033Z,17.87
2017-11-17T15:30:27.509Z,17.00
2017-11-17T15:32:58.045Z,17.67
2017-11-17T15:35:28.900Z,16.90
2017-11-17T15:38:00.167Z,16.10
2017-11-17T15:40:30.699Z,16.90
2017-11-17T15:43:01.199Z,15.27
2017-11-17T15:45:32.390Z,16.00
2017-11-17T15:48:02.905Z,16.67
2017-11-17T15:50:33.473Z,16.37
2017-11-17T15:53:04.497Z,14.47
2017-11-17T15:55:35.011Z,16.37
2017-11-17T15:58:05.548Z,14.37
2017-11-17T16:00:36.270Z,15.30
2017-11-17T16:03:06.845Z,16.53
2017-11-17T16:05:37.274Z,18.73
2017-11-17T16:08:07.854Z,17.87
2017-11-17T16:10:38.658Z,18.03
2017-11-17T16:13:10.041Z,18.87
2017-11-17T16:15:40.478Z,15.97
2017-11-17T16:18:11.030Z,17.03
2017-11-17T16:20:41.574Z,19.17
2017-11-17T16:23:12.536Z,18.80
2017-11-17T16:25:44.323Z,19.33
2017-11-17T16:28:16.013Z,19.17
2017-11-17T16:30:46.929Z,21.13
2017-11-17T16:33:17.873Z,18.70
2017-11-17T16:35:48.825Z,17.90
2017-11-17T16:38:19.658Z,18.13
2017-11-17T16:40:50.937Z,19.50
2017-11-17T16:43:21.827Z,18.60
2017-11-17T16:45:53.482Z,17.80
2017-11-17T16:48:24.340Z,19.93
2017-11-17T16:50:55.116Z,19.40
2017-11-17T16:53:27.245Z,18.40
2017-11-17T16:55:58.142Z,17.30
2017-11-17T16:58:29.357Z,16.27
2017-11-17T17:01:01.039Z,17.30
2017-11-17T17:03:31.952Z,18.50
2017-11-17T17:06:03.722Z,17.37
2017-11-17T17:08:34.281Z,17.50
2017-11-17T17:11:05.236Z,16.63
2017-11-17T17:13:35.738Z,15.57
2017-11-17T17:16:06.275Z,15.77
2017-11-17T17:18:36.821Z,14.53
2017-11-17T17:21:07.373Z,15.37
2017-11-17T17:23:39.083Z,15.73
2017-11-17T17:26:09.567Z,15.10
2017-11-17T17:28:40.392Z,11.37
2017-11-17T17:31:11.511Z,11.23
2017-11-17T17:33:42.468Z,11.40
2017-11-17T17:36:13.346Z,11.17
2017-11-17T17:38:45.041Z,10.73
2017-11-17T17:41:16.209Z,9.33
2017-11-17T17:43:47.151Z,9.20
2017-11-17T17:46:18.014Z,9.13
2017-11-17T17:48:49.724Z,9.50
2017-11-17T17:51:20.622Z,9.57
2017-11-17T17:53:52.764Z,9.90
2017-11-17T17:56:24.468Z,10.90
2017-11-17T17:58:55.764Z,10.77
2017-11-17T18:01:26.549Z,11.10
2017-11-17T18:03:57.474Z,9.73
2017-11-17T18:06:28.454Z,9.93
2017-11-17T18:08:59.409Z,9.50
2017-11-17T18:11:30.564Z,9.87
2017-11-17T18:14:01.996Z,9.53
2017-11-17T18:16:33.077Z,9.10
2017-11-17T18:19:03.958Z,9.90
2017-11-17T18:21:34.437Z,9.13
2017-11-17T18:24:05.898Z,8.90
2017-11-17T18:26:36.594Z,9.20
2017-11-17T18:29:07.557Z,9.67
2017-11-17T18:31:38.899Z,8.57
2017-11-17T18:34:10.171Z,9.20
2017-11-17T18:36:40.637Z,9.93
2017-11-17T18:39:11.151Z,9.40
2017-11-17T18:41:41.960Z,8.63
2017-11-17T18:44:12.541Z,9.10
2017-11-17T18:46:43.083Z,8.20
2017-11-17T18:49:13.600Z,8.17
2017-11-17T18:51:44.172Z,9.20
2017-11-17T18:54:16.002Z,9.13
2017-11-17T18:56:46.514Z,9.80
2017-11-17T18:59:17.742Z,8.83
2017-11-17T19:01:48.292Z,9.27
2017-11-17T19:04:18.958Z,8.87
2017-11-17T19:06:50.220Z,9.13
2017-11-17T19:09:20.821Z,9.83
2017-11-17T19:11:52.586Z,9.10
2017-11-17T19:14:23.872Z,9.73
2017-11-17T19:16:54.377Z,8.60
2017-11-17T19:19:24.950Z,9.63
2017-11-17T19:21:55.423Z,10.00
2017-11-17T19:24:27.172Z,9.40
2017-11-17T19:26:58.427Z,8.70
2017-11-17T19:29:30.109Z,9.40
2017-11-17T19:32:00.607Z,8.93
2017-11-17T19:34:46.289Z,9.30
2017-11-17T19:37:17.448Z,9.00
2017-11-17T19:39:47.923Z,9.10
2017-11-17T19:42:18.880Z,8.70
2017-11-17T19:44:49.391Z,8.70
2017-11-17T19:47:19.864Z,9.63
2017-11-17T19:49:51.183Z,9.80
2017-11-17T19:52:21.609Z,9.53
2017-11-17T19:54:52.554Z,9.07
2017-11-17T19:57:23.015Z,10.30
2017-11-17T19:59:53.614Z,9.60
2017-11-17T20:02:24.111Z,10.00
2017-11-17T20:04:54.625Z,9.80
2017-11-17T20:07:25.114Z,10.60
2017-11-17T20:09:56.378Z,9.60
2017-11-17T20:12:27.175Z,9.37
2017-11-17T20:14:57.597Z,9.57
2017-11-17T20:17:27.951Z,8.73
2017-11-17T20:19:59.451Z,9.70
2017-11-17T20:22:36.936Z,8.47
2017-11-17T20:25:07.905Z,8.70
2017-11-17T20:27:38.383Z,7.27
2017-11-17T20:30:09.128Z,8.20
2017-11-17T20:32:39.628Z,8.17
2017-11-17T20:35:10.879Z,8.80
2017-11-17T20:37:41.328Z,9.10
2017-11-17T20:40:11.867Z,9.03
2017-11-17T20:42:42.850Z,8.53
2017-11-17T20:45:14.096Z,9.00
2017-11-17T20:47:44.568Z,7.83
2017-11-17T20:50:15.100Z,9.50
2017-11-17T20:52:45.590Z,8.03
2017-11-17T20:55:17.172Z,7.47
2017-11-17T20:57:47.643Z,8.07
2017-11-17T21:00:18.615Z,7.70
2017-11-17T21:02:49.826Z,8.17
2017-11-17T21:05:21.117Z,7.63
2017-11-17T21:07:52.403Z,6.57
2017-11-17T21:10:22.903Z,7.20
2017-11-17T21:12:53.902Z,6.20
2017-11-17T21:15:24.420Z,6.10
2017-11-17T21:17:54.887Z,6.73
2017-11-17T21:20:25.403Z,6.10
2017-11-17T21:22:56.649Z,6.70
2017-11-17T21:25:28.206Z,5.93
2017-11-17T21:27:59.373Z,5.97
2017-11-17T21:30:29.990Z,6.60
2017-11-17T21:33:00.464Z,6.30
2017-11-17T21:35:30.986Z,5.93
2017-11-17T21:38:01.500Z,6.13
2017-11-17T21:40:31.996Z,6.63
2017-11-17T21:43:03.723Z,6.77
2017-11-17T21:45:34.263Z,5.70
2017-11-17T21:48:04.780Z,5.63
2017-11-17T21:50:35.271Z,5.90
2017-11-17T21:53:05.811Z,5.37
2017-11-17T21:55:36.659Z,5.80
2017-11-17T21:58:07.152Z,6.03
2017-11-17T22:00:38.018Z,5.97
2017-11-17T22:03:08.568Z,7.03
2017-11-17T22:05:39.086Z,5.40
2017-11-17T22:08:09.552Z,6.30
2017-11-17T22:10:40.827Z,6.20
2017-11-17T22:13:11.664Z,6.23
2017-11-17T22:15:42.161Z,6.03
2017-11-17T22:18:13.443Z,6.80
2017-11-17T22:20:43.892Z,6.60
2017-11-17T22:23:14.396Z,6.50
2017-11-17T22:25:44.931Z,6.60
2017-11-17T22:28:15.404Z,7.07
2017-11-17T22:30:46.355Z,6.63
2017-11-17T22:33:17.576Z,6.67
2017-11-17T22:35:48.115Z,6.30
2017-11-17T22:38:18.588Z,5.87
2017-11-17T22:40:49.147Z,6.73
2017-11-17T22:43:19.989Z,5.70
2017-11-17T22:45:50.481Z,6.60
2017-11-17T22:48:21.379Z,6.03
2017-11-17T22:50:51.930Z,6.60
2017-11-17T22:53:23.155Z,6.70
2017-11-17T22:55:53.662Z,5.87
2017-11-17T22:58:24.164Z,6.33
2017-11-17T23:00:54.851Z,5.93
2017-11-17T23:03:26.112Z,6.33
2017-11-17T23:05:57.372Z,6.33
2017-11-17T23:08:27.830Z,7.30
2017-11-17T23:10:58.366Z,6.90
2017-11-17T23:13:29.162Z,6.80
2017-11-17T23:15:59.640Z,6.30
2017-11-17T23:18:30.567Z,6.47
2017-11-17T23:21:01.036Z,5.40
2017-11-17T23:23:32.248Z,6.17
2017-11-17T23:26:02.772Z,7.20
2017-11-17T23:28:33.262Z,6.47
2017-11-17T23:31:04.076Z,6.63
2017-11-17T23:33:35.350Z,7.20
2017-11-17T23:36:05.895Z,6.73
2017-11-17T23:38:36.369Z,7.20
2017-11-17T23:41:07.666Z,6.90
2017-11-17T23:43:38.535Z,7.07
2017-11-17T23:46:08.967Z,6.23
2017-11-17T23:48:39.942Z,7.00
2017-11-17T23:51:10.427Z,8.00
2017-11-17T23:53:40.926Z,7.70
2017-11-17T23:56:11.392Z,7.73
2017-11-17T23:58:41.832Z,7.97
